Time;durP1;ratioP1;P1;durP2;ratioP2;P2;SDS_P1;SDS_P2;PMS_P1;PMS_P2;Temp;Humidity;BMP_temperature;BMP_pressure;BME280_temperature;BME280_humidity;BME280_pressure;Samples;Min_cycle;Max_cycle;Signal;HPM_P1;HPM_P2
2022/09/05 00:05:24;;;;;;;6.57;4.47;;;24.30;70.70;;;;;;10825127;33;20055;-72
2022/09/05 00:11:35;;;;;;;5.80;3.62;;;24.30;70.90;;;;;;10825145;33;20438;-72
2022/09/05 00:18:06;;;;;;;4.60;3.30;;;24.30;71.10;;;;;;10824595;33;20051;-73
2022/09/05 00:24:29;;;;;;;5.75;3.90;;;24.30;71.50;;;;;;10824252;33;20020;-72
2022/09/05 00:30:56;;;;;;;6.53;4.45;;;24.30;71.40;;;;;;10824547;33;20024;-72
2022/09/05 00:36:59;;;;;;;7.32;3.47;;;24.30;71.20;;;;;;10824366;33;20032;-72
2022/09/05 00:43:17;;;;;;;6.32;4.55;;;24.20;71.30;;;;;;10807035;33;20027;-72
2022/09/05 00:49:27;;;;;;;10.23;4.75;;;24.20;71.50;;;;;;10824188;33;20055;-72
2022/09/05 00:55:47;;;;;;;7.15;4.45;;;24.10;71.40;;;;;;10824039;33;20054;-72
2022/09/05 01:01:58;;;;;;;6.60;4.12;;;24.10;71.50;;;;;;10823846;33;20032;-72
2022/09/05 01:08:00;;;;;;;8.32;5.10;;;24.10;71.60;;;;;;10823096;33;20027;-72
2022/09/05 01:14:24;;;;;;;5.55;3.83;;;24.10;71.60;;;;;;10823597;33;20074;-72
2022/09/05 01:21:00;;;;;;;4.35;3.15;;;24.10;71.70;;;;;;10810263;33;20024;-72
2022/09/05 01:27:41;;;;;;;6.90;4.00;;;24.00;71.70;;;;;;10823853;33;20051;-72
2022/09/05 01:33:52;;;;;;;7.57;5.62;;;24.00;71.70;;;;;;10810080;33;20384;-72
2022/09/05 01:40:21;;;;;;;6.85;4.37;;;23.90;71.70;;;;;;10814349;32;20062;-72
2022/09/05 01:46:50;;;;;;;6.90;4.83;;;23.80;71.80;;;;;;10830821;32;20063;-72
2022/09/05 01:53:09;;;;;;;5.18;3.42;;;23.80;71.80;;;;;;10830872;32;20105;-72
2022/09/05 01:59:43;;;;;;;7.70;3.75;;;23.70;71.90;;;;;;10830595;32;20058;-72
2022/09/05 02:06:00;;;;;;;6.95;5.05;;;23.80;72.00;;;;;;10830234;32;20047;-72
2022/09/05 02:12:32;;;;;;;5.45;3.90;;;23.70;72.00;;;;;;10830096;32;20031;-72
2022/09/05 02:19:07;;;;;;;5.47;3.72;;;23.70;72.10;;;;;;10829933;32;20024;-72
2022/09/05 02:25:33;;;;;;;5.80;4.43;;;23.60;72.30;;;;;;10827928;33;20032;-72
2022/09/05 02:31:38;;;;;;;5.10;3.85;;;23.60;72.40;;;;;;10827804;33;20046;-72
2022/09/05 02:37:53;;;;;;;6.97;5.15;;;23.50;72.50;;;;;;10827812;32;20336;-72
2022/09/05 02:44:16;;;;;;;6.32;4.32;;;23.50;72.50;;;;;;10823168;33;20047;-72
2022/09/05 02:50:32;;;;;;;6.43;4.55;;;23.50;72.50;;;;;;10826977;32;20054;-72
2022/09/05 02:57:03;;;;;;;5.80;4.37;;;23.40;72.80;;;;;;10827152;32;20024;-72
2022/09/05 03:03:24;;;;;;;5.40;3.35;;;23.40;72.80;;;;;;10829123;32;20032;-72
2022/09/05 03:09:45;;;;;;;4.55;3.25;;;23.40;72.90;;;;;;10816349;32;20027;-72
2022/09/05 03:16:07;;;;;;;6.50;4.60;;;23.30;73.40;;;;;;10827792;32;20082;-72
2022/09/05 03:22:46;;;;;;;7.28;5.03;;;23.30;73.20;;;;;;10815397;32;20038;-72
2022/09/05 03:28:51;;;;;;;;;;;23.20;73.20;;;;;;10827649;32;20059;-72
2022/09/05 03:34:55;;;;;;;7.40;5.87;;;23.10;73.30;;;;;;10827210;32;19927;-72
2022/09/05 03:41:16;;;;;;;5.20;4.05;;;23.00;73.50;;;;;;10814071;33;20453;-72
2022/09/05 03:47:53;;;;;;;6.53;3.70;;;23.00;73.40;;;;;;10825772;32;20032;-72
2022/09/05 03:54:18;;;;;;;8.85;5.47;;;23.10;73.60;;;;;;10825500;33;20016;-72
2022/09/05 04:00:22;;;;;;;8.23;5.82;;;23.10;73.60;;;;;;10826413;32;20028;-73
2022/09/05 04:06:54;;;;;;;10.55;4.93;;;23.00;73.60;;;;;;10826819;32;20027;-72
2022/09/05 04:13:04;;;;;;;8.05;4.47;;;23.00;73.60;;;;;;10813873;32;20028;-72
2022/09/05 04:19:30;;;;;;;7.25;5.55;;;23.00;73.80;;;;;;10821752;33;20050;-72
2022/09/05 04:26:08;;;;;;;6.80;5.10;;;23.00;73.70;;;;;;10825712;32;20040;-72
2022/09/05 04:33:00;;;;;;;5.80;4.30;;;22.90;73.60;;;;;;10825788;33;20025;-72
2022/09/05 04:39:17;;;;;;;8.18;5.85;;;22.80;73.80;;;;;;10823808;33;20050;-72
2022/09/05 04:45:19;;;;;;;6.70;4.95;;;22.80;73.90;;;;;;10824500;33;20024;-72
2022/09/05 04:52:06;;;;;;;5.50;4.57;;;22.80;73.80;;;;;;10824144;32;20356;-72
2022/09/05 04:58:59;;;;;;;6.87;4.80;;;22.90;73.70;;;;;;10824029;32;20474;-72
2022/09/05 05:05:23;;;;;;;8.57;6.47;;;22.80;73.80;;;;;;10813696;32;20356;-72
2022/09/05 05:12:01;;;;;;;7.78;5.35;;;22.60;74.00;;;;;;10826934;32;20062;-72
2022/09/05 05:18:12;;;;;;;8.40;5.22;;;22.50;74.20;;;;;;10827714;32;20035;-72
2022/09/05 05:24:31;;;;;;;7.00;5.32;;;22.60;74.20;;;;;;10819353;32;20024;-72
2022/09/05 05:30:42;;;;;;;7.57;4.90;;;22.70;74.00;;;;;;10829928;32;20023;-73
2022/09/05 05:37:00;;;;;;;7.37;5.15;;;22.70;73.90;;;;;;10831095;32;20024;-73
2022/09/05 05:43:15;;;;;;;6.90;4.25;;;22.80;74.10;;;;;;10829261;32;20028;-73
2022/09/05 05:49:23;;;;;;;7.93;5.87;;;22.70;73.80;;;;;;10824598;33;20324;-73
2022/09/05 05:56:05;;;;;;;7.60;5.60;;;22.60;74.00;;;;;;10829006;33;20019;-73
2022/09/05 06:02:17;;;;;;;8.07;4.62;;;22.50;74.00;;;;;;10828657;33;20046;-73
2022/09/05 06:08:43;;;;;;;6.05;4.47;;;22.60;74.00;;;;;;10828541;32;20031;-73
2022/09/05 06:15:25;;;;;;;5.25;4.05;;;22.70;73.80;;;;;;10828056;33;20054;-73
2022/09/05 06:21:39;;;;;;;7.22;4.15;;;22.80;73.60;;;;;;10815738;32;20028;-73
2022/09/05 06:28:02;;;;;;;5.30;4.12;;;23.10;73.20;;;;;;10827948;33;20446;-73
2022/09/05 06:34:18;;;;;;;7.00;5.00;;;23.30;73.20;;;;;;10827856;33;20339;-73
2022/09/05 06:40:33;;;;;;;6.55;4.87;;;23.30;72.90;;;;;;10827595;33;20348;-73
2022/09/05 06:46:40;;;;;;;7.32;4.47;;;23.40;72.70;;;;;;10823082;33;20454;-72
2022/09/05 06:53:12;;;;;;;4.75;3.30;;;23.50;72.50;;;;;;10827139;33;20024;-72
2022/09/05 06:59:44;;;;;;;4.35;2.60;;;23.60;72.30;;;;;;10826829;32;20028;-72
2022/09/05 07:06:16;;;;;;;4.03;3.03;;;23.70;72.10;;;;;;10826804;33;20332;-73
2022/09/05 07:12:36;;;;;;;4.30;3.03;;;23.80;71.70;;;;;;10826683;33;20063;-73
2022/09/05 07:19:14;;;;;;;3.55;2.45;;;24.00;71.50;;;;;;10826506;33;20066;-73
2022/09/05 07:25:21;;;;;;;2.17;1.92;;;24.10;71.40;;;;;;10821326;33;20040;-73
2022/09/05 07:31:37;;;;;;;4.40;3.37;;;24.20;71.10;;;;;;10826045;32;20024;-73
2022/09/05 07:37:44;;;;;;;2.90;2.08;;;24.30;70.90;;;;;;10812603;33;20051;-73
2022/09/05 07:43:53;;;;;;;3.22;2.00;;;24.40;70.80;;;;;;10825943;32;20050;-73
2022/09/05 07:50:03;;;;;;;3.85;2.20;;;24.50;70.60;;;;;;10808420;33;20036;-73
2022/09/05 07:56:09;;;;;;;9.10;3.20;;;24.50;70.40;;;;;;10812275;33;20047;-73
2022/09/05 08:02:11;;;;;;;5.55;4.28;;;24.50;70.30;;;;;;10514551;26;12125972;-73
2022/09/05 08:08:36;;;;;;;7.37;2.90;;;24.60;70.10;;;;;;10901960;32;20423;-73
2022/09/05 08:14:51;;;;;;;3.20;1.98;;;24.70;69.90;;;;;;10884856;32;20035;-73
2022/09/05 08:20:59;;;;;;;3.72;2.33;;;24.80;69.60;;;;;;10900168;32;20047;-73
2022/09/05 08:27:20;;;;;;;3.70;2.10;;;24.90;69.40;;;;;;10888359;32;20035;-73
2022/09/05 08:33:31;;;;;;;3.78;3.00;;;25.00;69.20;;;;;;10921527;32;20312;-73
2022/09/05 08:39:34;;;;;;;2.47;1.92;;;25.10;68.90;;;;;;10940794;32;20027;-73
2022/09/05 08:45:49;;;;;;;3.05;2.35;;;25.30;68.70;;;;;;10942663;32;20403;-73
2022/09/05 08:52:01;;;;;;;5.37;2.15;;;25.30;68.40;;;;;;10947113;32;20046;-75
2022/09/05 08:58:22;;;;;;;5.47;3.53;;;25.50;68.40;;;;;;10948940;32;20031;-71
2022/09/05 09:04:24;;;;;;;6.70;3.85;;;25.70;68.00;;;;;;10948853;32;20015;-73
2022/09/05 09:10:45;;;;;;;4.10;2.70;;;25.80;67.80;;;;;;10948545;32;20027;-71
2022/09/05 09:17:03;;;;;;;3.90;3.00;;;25.90;67.40;;;;;;10948502;32;20343;-72
2022/09/05 09:23:15;;;;;;;6.57;3.17;;;25.90;67.40;;;;;;10947206;32;20031;-72
2022/09/05 09:29:18;;;;;;;4.12;2.97;;;26.00;67.30;;;;;;10947913;32;20045;-75
2022/09/05 09:35:43;;;;;;;5.40;3.20;;;26.00;67.10;;;;;;10947500;32;20052;-73
2022/09/05 09:42:18;;;;;;;4.57;2.53;;;26.10;67.10;;;;;;10946560;32;20046;-73
2022/09/05 09:49:03;;;;;;;5.30;3.97;;;26.30;66.60;;;;;;10819895;32;20031;-72
2022/09/05 09:55:39;;;;;;;3.65;2.28;;;26.60;65.80;;;;;;10831193;32;20043;-72
2022/09/05 10:02:06;;;;;;;5.47;3.42;;;26.70;65.30;;;;;;10829977;32;20032;-72
2022/09/05 10:08:28;;;;;;;4.40;3.47;;;26.80;64.90;;;;;;10830825;32;20066;-72
2022/09/05 10:14:54;;;;;;;2.60;1.95;;;27.10;64.50;;;;;;10721526;33;20021;-72
2022/09/05 10:21:30;;;;;;;2.12;1.92;;;27.20;64.00;;;;;;10741984;33;20051;-72
2022/09/05 10:28:04;;;;;;;4.10;3.12;;;27.30;63.30;;;;;;10780373;33;20032;-72
2022/09/05 10:34:21;;;;;;;3.47;2.72;;;27.50;62.80;;;;;;10753433;33;20021;-72
2022/09/05 10:40:27;;;;;;;3.83;2.80;;;27.60;62.40;;;;;;10755762;33;20021;-74
2022/09/05 10:46:58;;;;;;;4.22;2.03;;;27.70;61.80;;;;;;10755309;33;20056;-72
2022/09/05 10:53:21;;;;;;;3.17;2.33;;;27.60;61.80;;;;;;10828541;32;20051;-71
2022/09/05 11:06:16;;;;;;;4.47;2.58;;;27.90;60.80;;;;;;10828839;32;20420;-73
2022/09/05 11:12:51;;;;;;;9.37;2.80;;;28.40;60.10;;;;;;10939945;32;20075;-72
2022/09/05 11:19:02;;;;;;;5.03;2.37;;;28.90;59.00;;;;;;10944030;32;20015;-73
2022/09/05 11:25:22;;;;;;;5.70;2.45;;;29.10;58.40;;;;;;10944058;32;20132;-75
2022/09/05 11:31:43;;;;;;;3.95;2.00;;;29.30;57.90;;;;;;10942823;32;20018;-74
2022/09/05 11:37:58;;;;;;;3.25;1.75;;;29.60;57.70;;;;;;10943406;32;20026;-73
2022/09/05 11:44:22;;;;;;;3.20;2.42;;;29.90;57.10;;;;;;10942297;32;20041;-72
2022/09/05 11:50:49;;;;;;;3.42;1.80;;;30.00;55.70;;;;;;10942993;32;20046;-72
2022/09/05 11:57:15;;;;;;;3.83;2.40;;;30.00;56.00;;;;;;10942753;32;20069;-72
2022/09/05 12:03:54;;;;;;;2.72;1.75;;;30.00;55.80;;;;;;10941580;32;20034;-72
2022/09/05 12:10:02;;;;;;;3.08;1.95;;;30.10;55.50;;;;;;10941283;32;20019;-72
2022/09/05 12:16:38;;;;;;;4.10;2.12;;;30.00;55.00;;;;;;10940177;32;20039;-72
2022/09/05 12:22:53;;;;;;;3.85;2.10;;;30.10;54.80;;;;;;10937784;32;20034;-72
2022/09/05 12:29:08;;;;;;;3.37;1.33;;;30.00;54.70;;;;;;10941418;32;20057;-72
2022/09/05 12:35:17;;;;;;;3.75;2.60;;;29.90;54.90;;;;;;10941714;32;20351;-72
2022/09/05 12:41:24;;;;;;;3.28;1.60;;;29.80;54.90;;;;;;10941527;32;20031;-72
2022/09/05 12:47:28;;;;;;;2.40;1.65;;;29.80;54.70;;;;;;10941385;32;20027;-72
2022/09/05 12:53:53;;;;;;;3.35;2.20;;;29.70;55.00;;;;;;10941552;32;20420;-71
2022/09/05 13:00:01;;;;;;;4.32;2.20;;;29.60;54.80;;;;;;10878538;32;20025;-72
2022/09/05 13:06:08;;;;;;;5.28;2.50;;;29.60;55.00;;;;;;10750609;33;20393;-73
2022/09/05 13:12:46;;;;;;;3.37;2.22;;;29.50;54.80;;;;;;10750498;33;20021;-72
2022/09/05 13:19:01;;;;;;;3.10;1.70;;;29.60;54.60;;;;;;10826278;32;20067;-72
2022/09/05 13:25:09;;;;;;;3.55;1.85;;;29.60;54.70;;;;;;10825013;32;20028;-73
2022/09/05 13:31:22;;;;;;;3.62;1.70;;;29.70;54.40;;;;;;10822487;32;20058;-72
2022/09/05 13:37:46;;;;;;;3.87;2.35;;;29.60;54.50;;;;;;10831423;32;20055;-72
2022/09/05 13:43:49;;;;;;;3.78;2.35;;;29.60;54.20;;;;;;10827701;32;20063;-72
2022/09/05 13:50:21;;;;;;;2.28;1.77;;;29.70;54.10;;;;;;10830982;32;20050;-72
2022/09/05 13:56:30;;;;;;;4.75;2.25;;;29.70;53.80;;;;;;10755677;33;20066;-72
2022/09/05 14:03:07;;;;;;;3.03;1.98;;;29.70;53.60;;;;;;10755029;33;20036;-72
2022/09/05 14:09:41;;;;;;;3.83;2.37;;;29.80;53.40;;;;;;10751701;33;20041;-72
2022/09/05 14:16:03;;;;;;;3.45;1.77;;;29.80;53.20;;;;;;10755020;33;20025;-71
2022/09/05 14:22:08;;;;;;;3.00;1.98;;;29.90;53.20;;;;;;10754993;33;20020;-72
2022/09/05 14:28:26;;;;;;;3.37;1.80;;;30.00;53.00;;;;;;10752105;33;20029;-72
2022/09/05 14:35:03;;;;;;;4.45;2.42;;;30.10;52.80;;;;;;10907881;32;20439;-72
2022/09/05 14:41:42;;;;;;;5.18;2.42;;;30.20;52.60;;;;;;10890291;32;20042;-72
2022/09/05 14:47:56;;;;;;;2.40;1.75;;;30.30;52.20;;;;;;10907101;32;20054;-73
2022/09/05 14:54:02;;;;;;;3.05;2.10;;;30.40;52.20;;;;;;10907245;32;20085;-72
2022/09/05 15:00:11;;;;;;;2.80;1.98;;;30.50;52.00;;;;;;10931793;32;20050;-72
2022/09/05 15:06:18;;;;;;;4.28;1.92;;;30.50;52.10;;;;;;10944353;32;20027;-72
2022/09/05 15:12:20;;;;;;;6.50;2.87;;;30.60;52.30;;;;;;10942065;32;20056;-72
2022/09/05 15:18:28;;;;;;;4.05;2.55;;;30.60;52.40;;;;;;10930580;32;20027;-72
2022/09/05 15:24:30;;;;;;;2.42;1.55;;;30.60;52.60;;;;;;10943361;32;20035;-72
2022/09/05 15:30:33;;;;;;;4.57;2.05;;;30.70;52.60;;;;;;10943304;32;20053;-72
2022/09/05 15:36:40;;;;;;;13.05;2.60;;;30.60;52.70;;;;;;10940659;32;20038;-73
2022/09/05 15:42:59;;;;;;;2.85;2.08;;;30.50;53.90;;;;;;10929579;32;20416;-72
2022/09/05 15:49:02;;;;;;;2.65;1.80;;;30.50;53.60;;;;;;10942780;32;20058;-72
2022/09/05 15:55:22;;;;;;;2.92;1.92;;;30.50;53.30;;;;;;10941746;32;20391;-72
2022/09/05 16:01:42;;;;;;;2.80;1.73;;;30.40;53.10;;;;;;10999869;26;20406;-72
2022/09/05 16:07:49;;;;;;;3.15;2.08;;;30.20;53.20;;;;;;11013435;32;20026;-72
2022/09/05 16:13:53;;;;;;;;;;;30.20;53.40;;;;;;11019771;32;20045;-72
2022/09/05 16:20:17;;;;;;;4.75;1.50;;;30.10;53.00;;;;;;11004083;32;19925;-72
2022/09/05 16:26:32;;;;;;;3.00;2.00;;;30.10;52.80;;;;;;11017401;32;20062;-72
2022/09/05 16:32:41;;;;;;;2.70;1.20;;;30.20;52.60;;;;;;11017570;32;20030;-72
2022/09/05 16:38:48;;;;;;;3.72;2.08;;;30.80;51.60;;;;;;11017030;32;20026;-72
2022/09/05 16:45:04;;;;;;;3.57;2.03;;;31.50;50.30;;;;;;11017536;32;20053;-72
2022/09/05 16:51:31;;;;;;;1.70;1.00;;;31.80;50.10;;;;;;11012940;32;20106;-72
2022/09/05 16:57:38;;;;;;;2.87;1.80;;;31.10;51.20;;;;;;11017263;32;20021;-73
2022/09/05 17:04:11;;;;;;;2.58;1.75;;;30.30;53.40;;;;;;10945625;32;20031;-72
2022/09/05 17:10:19;;;;;;;2.35;1.65;;;29.80;54.50;;;;;;10902826;32;20023;-74
2022/09/05 17:16:55;;;;;;;3.05;1.65;;;29.70;55.00;;;;;;11038173;32;20029;-73
2022/09/05 17:23:15;;;;;;;2.25;1.27;;;29.40;55.30;;;;;;11062574;32;20018;-73
2022/09/05 17:29:39;;;;;;;1.65;1.25;;;29.00;55.90;;;;;;11061591;32;20052;-74
2022/09/05 17:36:00;;;;;;;33.08;6.82;;;28.80;56.40;;;;;;11051779;32;20052;-73
2022/09/05 17:42:35;;;;;;;2.40;1.42;;;28.80;56.60;;;;;;11024207;32;20052;-72
2022/09/05 17:48:47;;;;;;;4.93;3.17;;;28.60;56.80;;;;;;11023153;32;20034;-72
2022/09/05 17:54:51;;;;;;;4.45;2.80;;;28.50;57.00;;;;;;11055162;32;20030;-72
2022/09/05 18:01:15;;;;;;;3.72;2.40;;;28.40;57.30;;;;;;11042963;32;20391;-72
2022/09/05 18:07:33;;;;;;;2.95;1.25;;;28.30;57.50;;;;;;11060273;32;20026;-72
2022/09/05 18:13:52;;;;;;;;;;;28.20;57.70;;;;;;11058953;32;20448;-72
2022/09/05 18:20:15;;;;;;;3.78;2.00;;;28.00;58.00;;;;;;11039713;32;19933;-72
2022/09/05 18:26:25;;;;;;;3.78;1.73;;;27.90;58.20;;;;;;11058308;32;20026;-72
2022/09/05 18:32:50;;;;;;;2.87;1.42;;;27.80;58.50;;;;;;11059320;32;20022;-72
2022/09/05 18:39:22;;;;;;;3.75;1.83;;;27.70;58.70;;;;;;10862872;32;20312;-72
2022/09/05 18:45:25;;;;;;;9.85;2.53;;;27.60;59.00;;;;;;10792731;32;20294;-73
2022/09/05 18:51:30;;;;;;;3.78;1.30;;;27.50;59.10;;;;;;10791443;32;20365;-72
2022/09/05 18:57:37;;;;;;;2.22;1.30;;;27.50;59.30;;;;;;10792086;33;20016;-72
2022/09/05 19:03:41;;;;;;;2.17;1.67;;;27.50;59.40;;;;;;10791842;33;20020;-72
2022/09/05 19:10:01;;;;;;;10.23;2.10;;;27.40;59.60;;;;;;10788414;33;20051;-72
2022/09/05 19:16:21;;;;;;;9.07;1.60;;;27.30;60.00;;;;;;10883013;32;20034;-72
2022/09/05 19:22:45;;;;;;;3.12;1.98;;;27.30;60.10;;;;;;11042031;32;20041;-73
2022/09/05 19:29:15;;;;;;;1.20;1.05;;;27.20;60.20;;;;;;11056515;32;20051;-72
2022/09/05 19:35:21;;;;;;;2.08;1.73;;;27.10;60.40;;;;;;10974023;32;20019;-72
2022/09/05 19:41:28;;;;;;;1.67;1.48;;;27.10;60.50;;;;;;10976877;32;20031;-72
2022/09/05 19:47:34;;;;;;;1.85;1.37;;;27.00;60.80;;;;;;10976484;32;20386;-72
2022/09/05 19:53:51;;;;;;;3.00;1.52;;;26.90;60.90;;;;;;10976713;32;20027;-72
2022/09/05 19:59:58;;;;;;;2.08;1.30;;;26.90;61.10;;;;;;10976163;32;20053;-72
2022/09/05 20:06:01;;;;;;;4.53;2.60;;;26.90;61.20;;;;;;11043076;32;20329;-73
2022/09/05 20:12:18;;;;;;;2.22;1.60;;;26.80;61.50;;;;;;11040602;32;20341;-73
2022/09/05 20:18:44;;;;;;;2.55;1.77;;;26.80;61.50;;;;;;11041386;32;20062;-72
2022/09/05 20:24:48;;;;;;;3.80;2.10;;;26.80;61.70;;;;;;11017772;32;20022;-73
2022/09/05 20:30:57;;;;;;;8.98;1.80;;;26.80;61.90;;;;;;11017811;32;20462;-73
2022/09/05 20:37:02;;;;;;;3.42;2.47;;;26.70;62.10;;;;;;11013534;32;20010;-72
2022/09/05 20:43:15;;;;;;;7.40;2.50;;;26.70;62.30;;;;;;11020877;32;20354;-72
2022/09/05 20:49:29;;;;;;;5.28;2.25;;;26.60;62.40;;;;;;11025222;32;20041;-72
2022/09/05 20:55:37;;;;;;;3.17;1.90;;;26.60;62.60;;;;;;11025242;32;20413;-73
2022/09/05 21:01:41;;;;;;;2.15;1.42;;;26.50;63.70;;;;;;11024933;32;20040;-73
2022/09/05 21:07:51;;;;;;;2.22;2.00;;;26.30;64.60;;;;;;11024107;32;20018;-72
2022/09/05 21:13:57;;;;;;;3.03;2.08;;;26.30;64.50;;;;;;11022226;32;20044;-73
2022/09/05 21:20:06;;;;;;;3.85;2.30;;;26.30;64.50;;;;;;11024552;32;20019;-73
2022/09/05 21:26:26;;;;;;;7.87;1.92;;;26.20;65.20;;;;;;11010176;32;20048;-73
2022/09/05 21:32:28;;;;;;;4.55;1.85;;;26.00;65.80;;;;;;11023843;32;20014;-72
2022/09/05 21:38:33;;;;;;;4.53;2.65;;;26.00;65.70;;;;;;11023518;32;20068;-72
2022/09/05 21:45:03;;;;;;;1.95;1.50;;;25.90;65.70;;;;;;11023229;32;20018;-73
2022/09/05 21:51:12;;;;;;;4.22;2.30;;;25.80;66.60;;;;;;11022975;32;20018;-72
2022/09/05 21:57:24;;;;;;;3.95;2.42;;;25.80;66.70;;;;;;11022468;32;20022;-72
2022/09/05 22:03:26;;;;;;;3.67;2.40;;;25.80;66.60;;;;;;11022565;32;20033;-72
2022/09/05 22:09:29;;;;;;;6.60;3.12;;;25.80;66.80;;;;;;11022468;32;20026;-72
2022/09/05 22:15:31;;;;;;;4.90;2.67;;;25.80;67.10;;;;;;11022185;32;20061;-73
2022/09/05 22:21:38;;;;;;;3.05;2.28;;;25.80;67.10;;;;;;11022204;32;20326;-73
2022/09/05 22:27:43;;;;;;;4.43;2.78;;;25.70;67.40;;;;;;11021631;32;20022;-72
2022/09/05 22:33:45;;;;;;;4.62;2.80;;;25.70;67.20;;;;;;11016922;32;20026;-73
2022/09/05 22:39:47;;;;;;;3.28;2.28;;;25.60;67.30;;;;;;11021501;32;20391;-72
2022/09/05 22:45:54;;;;;;;2.22;1.85;;;25.60;67.30;;;;;;11021275;32;20026;-72
2022/09/05 22:51:56;;;;;;;3.33;2.20;;;25.60;67.30;;;;;;11020392;32;20019;-72
2022/09/05 22:57:58;;;;;;;4.15;2.62;;;25.50;67.30;;;;;;11021045;32;20049;-73
2022/09/05 23:04:01;;;;;;;3.78;2.20;;;25.50;67.70;;;;;;11019733;32;20058;-73
2022/09/05 23:10:04;;;;;;;2.62;1.80;;;25.50;67.90;;;;;;11006821;32;20330;-72
2022/09/05 23:16:06;;;;;;;5.18;2.75;;;25.40;67.80;;;;;;11020122;32;20053;-72
2022/09/05 23:22:08;;;;;;;3.60;2.47;;;25.30;68.00;;;;;;11019997;32;20023;-73
2022/09/05 23:28:11;;;;;;;4.18;2.83;;;25.30;68.00;;;;;;11019761;32;20108;-72
2022/09/05 23:34:12;;;;;;;4.70;3.03;;;25.20;68.10;;;;;;11019694;32;20357;-73
2022/09/05 23:40:16;;;;;;;4.43;2.75;;;25.20;68.30;;;;;;11019257;32;20053;-73
2022/09/05 23:46:19;;;;;;;4.05;2.50;;;25.20;68.80;;;;;;11005366;32;20035;-73
2022/09/05 23:52:21;;;;;;;3.42;2.50;;;25.10;69.30;;;;;;11018845;32;20062;-73
2022/09/05 23:58:23;;;;;;;4.80;2.67;;;25.10;69.50;;;;;;11020375;26;20077;-72
